sensor_id;sensor_type;location;lat;lon;timestamp;P1;durP1;ratioP1;P2;durP2;ratioP2
3755;SDS011;1893;52.526;13.360;2023-05-07T00:02:02;21.43;;;13.87;;
3755;SDS011;1893;52.526;13.360;2023-05-07T00:04:28;18.97;;;13.47;;
3755;SDS011;1893;52.526;13.360;2023-05-07T00:07:00;19.97;;;14.83;;
3755;SDS011;1893;52.526;13.360;2023-05-07T00:09:26;19.13;;;15.17;;
3755;SDS011;1893;52.526;13.360;2023-05-07T00:11:52;17.80;;;14.20;;
3755;SDS011;1893;52.526;13.360;2023-05-07T00:14:17;24.13;;;14.60;;
3755;SDS011;1893;52.526;13.360;2023-05-07T00:16:43;16.73;;;13.50;;
3755;SDS011;1893;52.526;13.360;2023-05-07T00:19:09;17.97;;;13.10;;
3755;SDS011;1893;52.526;13.360;2023-05-07T00:21:34;20.60;;;13.80;;
3755;SDS011;1893;52.526;13.360;2023-05-07T00:24:00;17.83;;;13.30;;
3755;SDS011;1893;52.526;13.360;2023-05-07T00:26:26;19.93;;;13.10;;
3755;SDS011;1893;52.526;13.360;2023-05-07T00:28:51;15.90;;;12.20;;
3755;SDS011;1893;52.526;13.360;2023-05-07T00:31:17;19.90;;;13.90;;
3755;SDS011;1893;52.526;13.360;2023-05-07T00:33:43;16.33;;;12.87;;
3755;SDS011;1893;52.526;13.360;2023-05-07T00:36:08;15.43;;;13.13;;
3755;SDS011;1893;52.526;13.360;2023-05-07T00:38:34;17.60;;;12.70;;
3755;SDS011;1893;52.526;13.360;2023-05-07T00:41:00;13.50;;;11.10;;
3755;SDS011;1893;52.526;13.360;2023-05-07T00:43:27;16.50;;;11.50;;
3755;SDS011;1893;52.526;13.360;2023-05-07T00:45:53;14.37;;;11.60;;
3755;SDS011;1893;52.526;13.360;2023-05-07T00:48:19;14.60;;;12.60;;
3755;SDS011;1893;52.526;13.360;2023-05-07T00:50:45;12.80;;;11.50;;
3755;SDS011;1893;52.526;13.360;2023-05-07T00:53:12;14.50;;;11.00;;
3755;SDS011;1893;52.526;13.360;2023-05-07T00:55:38;15.17;;;11.83;;
3755;SDS011;1893;52.526;13.360;2023-05-07T00:58:03;19.70;;;12.87;;
3755;SDS011;1893;52.526;13.360;2023-05-07T01:00:29;14.30;;;12.80;;
3755;SDS011;1893;52.526;13.360;2023-05-07T01:02:55;18.93;;;14.00;;
3755;SDS011;1893;52.526;13.360;2023-05-07T01:05:21;15.87;;;12.97;;
3755;SDS011;1893;52.526;13.360;2023-05-07T01:07:48;16.33;;;12.47;;
3755;SDS011;1893;52.526;13.360;2023-05-07T01:10:15;16.80;;;12.50;;
3755;SDS011;1893;52.526;13.360;2023-05-07T01:12:42;18.23;;;12.67;;
3755;SDS011;1893;52.526;13.360;2023-05-07T01:15:10;18.63;;;12.90;;
3755;SDS011;1893;52.526;13.360;2023-05-07T01:17:37;13.00;;;11.60;;
3755;SDS011;1893;52.526;13.360;2023-05-07T01:20:04;13.83;;;12.23;;
3755;SDS011;1893;52.526;13.360;2023-05-07T01:22:35;17.80;;;12.17;;
3755;SDS011;1893;52.526;13.360;2023-05-07T01:25:06;18.73;;;12.83;;
3755;SDS011;1893;52.526;13.360;2023-05-07T01:27:33;13.33;;;11.80;;
3755;SDS011;1893;52.526;13.360;2023-05-07T01:30:00;14.97;;;11.90;;
3755;SDS011;1893;52.526;13.360;2023-05-07T01:32:31;15.13;;;11.20;;
3755;SDS011;1893;52.526;13.360;2023-05-07T01:34:58;14.87;;;11.80;;
3755;SDS011;1893;52.526;13.360;2023-05-07T01:37:25;14.00;;;11.47;;
3755;SDS011;1893;52.526;13.360;2023-05-07T01:39:52;15.10;;;11.80;;
3755;SDS011;1893;52.526;13.360;2023-05-07T01:42:18;12.07;;;10.63;;
3755;SDS011;1893;52.526;13.360;2023-05-07T01:44:44;16.97;;;11.97;;
3755;SDS011;1893;52.526;13.360;2023-05-07T01:47:10;13.20;;;10.60;;
3755;SDS011;1893;52.526;13.360;2023-05-07T01:49:37;15.00;;;11.20;;
3755;SDS011;1893;52.526;13.360;2023-05-07T01:52:03;13.43;;;11.00;;
3755;SDS011;1893;52.526;13.360;2023-05-07T01:54:29;16.53;;;12.03;;
3755;SDS011;1893;52.526;13.360;2023-05-07T01:56:58;14.70;;;11.20;;
3755;SDS011;1893;52.526;13.360;2023-05-07T01:59:24;14.07;;;10.97;;
3755;SDS011;1893;52.526;13.360;2023-05-07T02:01:50;15.23;;;11.17;;
3755;SDS011;1893;52.526;13.360;2023-05-07T02:04:16;15.73;;;11.67;;
3755;SDS011;1893;52.526;13.360;2023-05-07T02:06:42;11.60;;;10.40;;
3755;SDS011;1893;52.526;13.360;2023-05-07T02:09:08;13.60;;;11.33;;
3755;SDS011;1893;52.526;13.360;2023-05-07T02:11:36;12.80;;;10.63;;
3755;SDS011;1893;52.526;13.360;2023-05-07T02:14:01;18.87;;;11.57;;
3755;SDS011;1893;52.526;13.360;2023-05-07T02:16:27;15.30;;;11.60;;
3755;SDS011;1893;52.526;13.360;2023-05-07T02:18:53;13.93;;;11.77;;
3755;SDS011;1893;52.526;13.360;2023-05-07T02:21:18;15.87;;;12.00;;
3755;SDS011;1893;52.526;13.360;2023-05-07T02:23:44;15.37;;;12.83;;
3755;SDS011;1893;52.526;13.360;2023-05-07T02:26:10;14.93;;;11.87;;
3755;SDS011;1893;52.526;13.360;2023-05-07T02:28:36;16.03;;;11.87;;
3755;SDS011;1893;52.526;13.360;2023-05-07T02:31:02;14.40;;;11.10;;
3755;SDS011;1893;52.526;13.360;2023-05-07T02:33:28;16.77;;;12.80;;
3755;SDS011;1893;52.526;13.360;2023-05-07T02:35:54;14.90;;;11.30;;
3755;SDS011;1893;52.526;13.360;2023-05-07T02:38:19;15.40;;;11.77;;
3755;SDS011;1893;52.526;13.360;2023-05-07T02:40:45;18.07;;;13.00;;
3755;SDS011;1893;52.526;13.360;2023-05-07T02:43:10;16.60;;;12.37;;
3755;SDS011;1893;52.526;13.360;2023-05-07T02:45:36;15.17;;;11.77;;
3755;SDS011;1893;52.526;13.360;2023-05-07T02:48:02;16.03;;;12.30;;
3755;SDS011;1893;52.526;13.360;2023-05-07T02:50:28;17.83;;;11.53;;
3755;SDS011;1893;52.526;13.360;2023-05-07T02:52:54;15.20;;;11.17;;
3755;SDS011;1893;52.526;13.360;2023-05-07T02:55:20;14.93;;;12.77;;
3755;SDS011;1893;52.526;13.360;2023-05-07T02:57:46;14.30;;;11.50;;
3755;SDS011;1893;52.526;13.360;2023-05-07T03:00:15;16.10;;;11.60;;
3755;SDS011;1893;52.526;13.360;2023-05-07T03:02:43;18.67;;;12.43;;
3755;SDS011;1893;52.526;13.360;2023-05-07T03:05:11;17.00;;;11.20;;
3755;SDS011;1893;52.526;13.360;2023-05-07T03:07:38;13.07;;;10.93;;
3755;SDS011;1893;52.526;13.360;2023-05-07T03:10:04;14.23;;;11.47;;
3755;SDS011;1893;52.526;13.360;2023-05-07T03:12:30;16.10;;;11.40;;
3755;SDS011;1893;52.526;13.360;2023-05-07T03:14:56;14.27;;;11.07;;
3755;SDS011;1893;52.526;13.360;2023-05-07T03:17:22;12.90;;;11.27;;
3755;SDS011;1893;52.526;13.360;2023-05-07T03:19:47;15.83;;;11.53;;
3755;SDS011;1893;52.526;13.360;2023-05-07T03:22:13;12.33;;;11.00;;
3755;SDS011;1893;52.526;13.360;2023-05-07T03:24:39;14.50;;;10.53;;
3755;SDS011;1893;52.526;13.360;2023-05-07T03:27:05;11.80;;;9.77;;
3755;SDS011;1893;52.526;13.360;2023-05-07T03:29:30;13.80;;;10.90;;
3755;SDS011;1893;52.526;13.360;2023-05-07T03:31:56;16.07;;;11.43;;
3755;SDS011;1893;52.526;13.360;2023-05-07T03:34:21;14.30;;;10.67;;
3755;SDS011;1893;52.526;13.360;2023-05-07T03:36:48;13.93;;;10.23;;
3755;SDS011;1893;52.526;13.360;2023-05-07T03:39:14;11.80;;;9.70;;
3755;SDS011;1893;52.526;13.360;2023-05-07T03:41:39;11.13;;;9.80;;
3755;SDS011;1893;52.526;13.360;2023-05-07T03:44:05;12.00;;;9.60;;
3755;SDS011;1893;52.526;13.360;2023-05-07T03:46:31;14.50;;;9.90;;
3755;SDS011;1893;52.526;13.360;2023-05-07T03:48:58;14.80;;;10.70;;
3755;SDS011;1893;52.526;13.360;2023-05-07T03:51:24;13.17;;;10.80;;
3755;SDS011;1893;52.526;13.360;2023-05-07T03:53:50;16.23;;;11.07;;
3755;SDS011;1893;52.526;13.360;2023-05-07T03:56:18;13.03;;;11.07;;
3755;SDS011;1893;52.526;13.360;2023-05-07T03:58:44;13.30;;;11.73;;
3755;SDS011;1893;52.526;13.360;2023-05-07T04:01:10;13.03;;;10.90;;
3755;SDS011;1893;52.526;13.360;2023-05-07T04:03:36;16.73;;;11.90;;
3755;SDS011;1893;52.526;13.360;2023-05-07T04:06:02;12.13;;;10.83;;
3755;SDS011;1893;52.526;13.360;2023-05-07T04:08:27;12.33;;;10.70;;
3755;SDS011;1893;52.526;13.360;2023-05-07T04:10:56;14.07;;;10.63;;
3755;SDS011;1893;52.526;13.360;2023-05-07T04:13:23;13.17;;;11.77;;
3755;SDS011;1893;52.526;13.360;2023-05-07T04:15:50;15.30;;;10.90;;
3755;SDS011;1893;52.526;13.360;2023-05-07T04:18:16;15.53;;;11.30;;
3755;SDS011;1893;52.526;13.360;2023-05-07T04:20:41;14.47;;;10.60;;
3755;SDS011;1893;52.526;13.360;2023-05-07T04:23:07;13.10;;;10.40;;
3755;SDS011;1893;52.526;13.360;2023-05-07T04:25:33;13.67;;;10.50;;
3755;SDS011;1893;52.526;13.360;2023-05-07T04:27:59;11.33;;;9.90;;
3755;SDS011;1893;52.526;13.360;2023-05-07T04:30:24;13.40;;;10.43;;
3755;SDS011;1893;52.526;13.360;2023-05-07T04:32:50;14.03;;;10.80;;
3755;SDS011;1893;52.526;13.360;2023-05-07T04:35:16;12.30;;;9.77;;
3755;SDS011;1893;52.526;13.360;2023-05-07T04:37:42;12.97;;;10.50;;
3755;SDS011;1893;52.526;13.360;2023-05-07T04:40:08;11.70;;;9.90;;
3755;SDS011;1893;52.526;13.360;2023-05-07T04:42:33;10.47;;;9.43;;
3755;SDS011;1893;52.526;13.360;2023-05-07T04:44:59;10.77;;;9.60;;
3755;SDS011;1893;52.526;13.360;2023-05-07T04:47:26;14.83;;;9.70;;
3755;SDS011;1893;52.526;13.360;2023-05-07T04:49:51;15.00;;;9.70;;
3755;SDS011;1893;52.526;13.360;2023-05-07T04:52:17;9.93;;;8.93;;
3755;SDS011;1893;52.526;13.360;2023-05-07T04:54:42;10.40;;;9.30;;
3755;SDS011;1893;52.526;13.360;2023-05-07T04:57:08;15.50;;;11.50;;
3755;SDS011;1893;52.526;13.360;2023-05-07T04:59:33;13.93;;;10.87;;
3755;SDS011;1893;52.526;13.360;2023-05-07T05:01:59;10.67;;;9.17;;
3755;SDS011;1893;52.526;13.360;2023-05-07T05:04:25;12.40;;;9.33;;
3755;SDS011;1893;52.526;13.360;2023-05-07T05:06:50;11.50;;;9.70;;
3755;SDS011;1893;52.526;13.360;2023-05-07T05:09:16;13.83;;;10.83;;
3755;SDS011;1893;52.526;13.360;2023-05-07T05:11:42;11.23;;;9.17;;
3755;SDS011;1893;52.526;13.360;2023-05-07T05:14:08;10.90;;;8.00;;
3755;SDS011;1893;52.526;13.360;2023-05-07T05:16:34;7.73;;;7.00;;
3755;SDS011;1893;52.526;13.360;2023-05-07T05:18:59;8.97;;;8.07;;
3755;SDS011;1893;52.526;13.360;2023-05-07T05:21:26;11.77;;;7.40;;
3755;SDS011;1893;52.526;13.360;2023-05-07T05:23:51;10.30;;;6.80;;
3755;SDS011;1893;52.526;13.360;2023-05-07T05:26:17;9.23;;;7.53;;
3755;SDS011;1893;52.526;13.360;2023-05-07T05:28:43;8.60;;;7.67;;
3755;SDS011;1893;52.526;13.360;2023-05-07T05:31:09;9.20;;;7.33;;
3755;SDS011;1893;52.526;13.360;2023-05-07T05:33:35;7.67;;;6.30;;
3755;SDS011;1893;52.526;13.360;2023-05-07T05:36:01;9.20;;;7.83;;
3755;SDS011;1893;52.526;13.360;2023-05-07T05:38:26;8.20;;;7.40;;
3755;SDS011;1893;52.526;13.360;2023-05-07T05:40:52;11.40;;;8.10;;
3755;SDS011;1893;52.526;13.360;2023-05-07T05:43:17;8.70;;;7.60;;
3755;SDS011;1893;52.526;13.360;2023-05-07T05:45:43;10.57;;;8.30;;
3755;SDS011;1893;52.526;13.360;2023-05-07T05:48:09;10.93;;;8.60;;
3755;SDS011;1893;52.526;13.360;2023-05-07T05:50:34;12.13;;;7.90;;
3755;SDS011;1893;52.526;13.360;2023-05-07T05:53:03;11.10;;;10.00;;
3755;SDS011;1893;52.526;13.360;2023-05-07T05:55:29;10.23;;;7.93;;
3755;SDS011;1893;52.526;13.360;2023-05-07T05:57:57;10.80;;;8.30;;
3755;SDS011;1893;52.526;13.360;2023-05-07T06:00:23;13.73;;;7.77;;
3755;SDS011;1893;52.526;13.360;2023-05-07T06:02:49;10.67;;;8.30;;
3755;SDS011;1893;52.526;13.360;2023-05-07T06:05:14;9.53;;;8.50;;
3755;SDS011;1893;52.526;13.360;2023-05-07T06:07:40;8.30;;;7.50;;
3755;SDS011;1893;52.526;13.360;2023-05-07T06:10:06;11.13;;;7.67;;
3755;SDS011;1893;52.526;13.360;2023-05-07T06:12:32;11.50;;;7.90;;
3755;SDS011;1893;52.526;13.360;2023-05-07T06:14:57;11.70;;;8.43;;
3755;SDS011;1893;52.526;13.360;2023-05-07T06:17:23;10.07;;;8.10;;
3755;SDS011;1893;52.526;13.360;2023-05-07T06:19:48;8.90;;;8.00;;
3755;SDS011;1893;52.526;13.360;2023-05-07T06:22:14;9.10;;;7.60;;
3755;SDS011;1893;52.526;13.360;2023-05-07T06:24:40;9.50;;;7.10;;
3755;SDS011;1893;52.526;13.360;2023-05-07T06:27:06;10.90;;;7.67;;
3755;SDS011;1893;52.526;13.360;2023-05-07T06:29:31;9.50;;;7.53;;
3755;SDS011;1893;52.526;13.360;2023-05-07T06:32:05;9.83;;;8.47;;
3755;SDS011;1893;52.526;13.360;2023-05-07T06:34:35;11.77;;;7.40;;
3755;SDS011;1893;52.526;13.360;2023-05-07T06:37:02;8.70;;;7.80;;
3755;SDS011;1893;52.526;13.360;2023-05-07T06:39:27;10.30;;;8.10;;
3755;SDS011;1893;52.526;13.360;2023-05-07T06:41:53;13.73;;;7.60;;
3755;SDS011;1893;52.526;13.360;2023-05-07T06:44:19;9.07;;;7.77;;
3755;SDS011;1893;52.526;13.360;2023-05-07T06:46:44;9.03;;;8.13;;
3755;SDS011;1893;52.526;13.360;2023-05-07T06:49:10;8.50;;;7.63;;
3755;SDS011;1893;52.526;13.360;2023-05-07T06:51:37;9.13;;;7.90;;
3755;SDS011;1893;52.526;13.360;2023-05-07T06:54:03;9.50;;;7.27;;
3755;SDS011;1893;52.526;13.360;2023-05-07T06:56:29;11.00;;;8.40;;
3755;SDS011;1893;52.526;13.360;2023-05-07T06:58:59;11.50;;;7.27;;
3755;SDS011;1893;52.526;13.360;2023-05-07T07:01:25;9.37;;;7.40;;
3755;SDS011;1893;52.526;13.360;2023-05-07T07:03:51;8.20;;;7.10;;
3755;SDS011;1893;52.526;13.360;2023-05-07T07:06:16;8.97;;;8.00;;
3755;SDS011;1893;52.526;13.360;2023-05-07T07:08:42;7.10;;;6.50;;
3755;SDS011;1893;52.526;13.360;2023-05-07T07:11:08;8.37;;;6.13;;
3755;SDS011;1893;52.526;13.360;2023-05-07T07:13:35;8.43;;;6.70;;
3755;SDS011;1893;52.526;13.360;2023-05-07T07:16:00;7.87;;;6.33;;
3755;SDS011;1893;52.526;13.360;2023-05-07T07:18:26;6.77;;;6.07;;
3755;SDS011;1893;52.526;13.360;2023-05-07T07:20:52;7.63;;;6.40;;
3755;SDS011;1893;52.526;13.360;2023-05-07T07:23:17;7.03;;;5.90;;
3755;SDS011;1893;52.526;13.360;2023-05-07T07:25:43;9.43;;;5.80;;
3755;SDS011;1893;52.526;13.360;2023-05-07T07:28:08;7.63;;;4.57;;
3755;SDS011;1893;52.526;13.360;2023-05-07T07:30:35;5.50;;;5.00;;
3755;SDS011;1893;52.526;13.360;2023-05-07T07:33:01;7.03;;;5.33;;
3755;SDS011;1893;52.526;13.360;2023-05-07T07:35:28;6.93;;;4.33;;
3755;SDS011;1893;52.526;13.360;2023-05-07T07:37:54;9.97;;;4.03;;
3755;SDS011;1893;52.526;13.360;2023-05-07T07:40:20;5.10;;;4.60;;
3755;SDS011;1893;52.526;13.360;2023-05-07T07:42:46;5.07;;;4.60;;
3755;SDS011;1893;52.526;13.360;2023-05-07T07:45:12;4.83;;;4.43;;
3755;SDS011;1893;52.526;13.360;2023-05-07T07:47:37;4.73;;;4.33;;
3755;SDS011;1893;52.526;13.360;2023-05-07T07:50:04;4.47;;;3.93;;
3755;SDS011;1893;52.526;13.360;2023-05-07T07:52:30;5.37;;;4.10;;
3755;SDS011;1893;52.526;13.360;2023-05-07T07:54:56;7.30;;;4.70;;
3755;SDS011;1893;52.526;13.360;2023-05-07T07:57:21;6.70;;;4.10;;
3755;SDS011;1893;52.526;13.360;2023-05-07T07:59:47;5.53;;;4.53;;
3755;SDS011;1893;52.526;13.360;2023-05-07T08:02:13;4.17;;;3.77;;
3755;SDS011;1893;52.526;13.360;2023-05-07T08:04:38;6.93;;;3.53;;
3755;SDS011;1893;52.526;13.360;2023-05-07T08:07:04;5.00;;;3.30;;
3755;SDS011;1893;52.526;13.360;2023-05-07T08:09:30;3.70;;;3.10;;
3755;SDS011;1893;52.526;13.360;2023-05-07T08:11:56;4.13;;;3.67;;
3755;SDS011;1893;52.526;13.360;2023-05-07T08:14:22;3.23;;;3.03;;
3755;SDS011;1893;52.526;13.360;2023-05-07T08:16:47;4.30;;;3.43;;
3755;SDS011;1893;52.526;13.360;2023-05-07T08:19:13;4.37;;;3.20;;
3755;SDS011;1893;52.526;13.360;2023-05-07T08:21:39;4.30;;;3.77;;
3755;SDS011;1893;52.526;13.360;2023-05-07T08:24:05;3.43;;;2.90;;
3755;SDS011;1893;52.526;13.360;2023-05-07T08:26:31;2.77;;;2.57;;
3755;SDS011;1893;52.526;13.360;2023-05-07T08:28:57;3.73;;;3.43;;
3755;SDS011;1893;52.526;13.360;2023-05-07T08:31:22;4.60;;;2.47;;
3755;SDS011;1893;52.526;13.360;2023-05-07T08:33:48;4.50;;;4.00;;
3755;SDS011;1893;52.526;13.360;2023-05-07T08:36:13;3.43;;;2.90;;
3755;SDS011;1893;52.526;13.360;2023-05-07T08:38:39;3.63;;;3.33;;
3755;SDS011;1893;52.526;13.360;2023-05-07T08:41:10;4.03;;;3.00;;
3755;SDS011;1893;52.526;13.360;2023-05-07T08:43:36;4.23;;;3.83;;
3755;SDS011;1893;52.526;13.360;2023-05-07T08:46:04;4.80;;;3.60;;
3755;SDS011;1893;52.526;13.360;2023-05-07T08:48:31;3.73;;;3.40;;
3755;SDS011;1893;52.526;13.360;2023-05-07T08:50:58;2.90;;;2.70;;
3755;SDS011;1893;52.526;13.360;2023-05-07T08:53:24;3.40;;;3.10;;
3755;SDS011;1893;52.526;13.360;2023-05-07T08:55:50;3.03;;;2.83;;
3755;SDS011;1893;52.526;13.360;2023-05-07T08:58:16;3.30;;;3.00;;
3755;SDS011;1893;52.526;13.360;2023-05-07T09:00:42;3.23;;;2.93;;
3755;SDS011;1893;52.526;13.360;2023-05-07T09:03:08;3.73;;;2.80;;
3755;SDS011;1893;52.526;13.360;2023-05-07T09:05:37;4.00;;;3.10;;
3755;SDS011;1893;52.526;13.360;2023-05-07T09:08:03;3.27;;;2.90;;
3755;SDS011;1893;52.526;13.360;2023-05-07T09:10:29;3.00;;;2.70;;
3755;SDS011;1893;52.526;13.360;2023-05-07T09:12:54;3.20;;;2.90;;
3755;SDS011;1893;52.526;13.360;2023-05-07T09:15:20;3.33;;;2.87;;
3755;SDS011;1893;52.526;13.360;2023-05-07T09:17:46;5.13;;;3.10;;
3755;SDS011;1893;52.526;13.360;2023-05-07T09:20:11;3.30;;;3.10;;
3755;SDS011;1893;52.526;13.360;2023-05-07T09:22:37;4.40;;;3.80;;
3755;SDS011;1893;52.526;13.360;2023-05-07T09:25:03;2.83;;;2.60;;
3755;SDS011;1893;52.526;13.360;2023-05-07T09:27:31;4.60;;;4.00;;
3755;SDS011;1893;52.526;13.360;2023-05-07T09:29:56;3.40;;;3.10;;
3755;SDS011;1893;52.526;13.360;2023-05-07T09:32:22;3.50;;;3.17;;
3755;SDS011;1893;52.526;13.360;2023-05-07T09:34:47;3.97;;;3.67;;
3755;SDS011;1893;52.526;13.360;2023-05-07T09:37:13;3.97;;;2.80;;
3755;SDS011;1893;52.526;13.360;2023-05-07T09:39:43;3.80;;;2.80;;
3755;SDS011;1893;52.526;13.360;2023-05-07T09:42:12;5.90;;;3.20;;
3755;SDS011;1893;52.526;13.360;2023-05-07T09:44:40;3.20;;;2.77;;
3755;SDS011;1893;52.526;13.360;2023-05-07T09:47:06;5.33;;;4.20;;
3755;SDS011;1893;52.526;13.360;2023-05-07T09:49:34;5.13;;;4.13;;
3755;SDS011;1893;52.526;13.360;2023-05-07T09:52:02;5.07;;;3.10;;
3755;SDS011;1893;52.526;13.360;2023-05-07T09:54:31;2.80;;;2.60;;
3755;SDS011;1893;52.526;13.360;2023-05-07T09:57:02;3.40;;;3.10;;
3755;SDS011;1893;52.526;13.360;2023-05-07T09:59:31;3.43;;;3.13;;
3755;SDS011;1893;52.526;13.360;2023-05-07T10:01:58;2.60;;;2.40;;
3755;SDS011;1893;52.526;13.360;2023-05-07T10:04:26;2.47;;;2.27;;
3755;SDS011;1893;52.526;13.360;2023-05-07T10:06:52;2.90;;;2.70;;
3755;SDS011;1893;52.526;13.360;2023-05-07T10:09:20;6.03;;;2.90;;
3755;SDS011;1893;52.526;13.360;2023-05-07T10:11:48;3.23;;;2.67;;
3755;SDS011;1893;52.526;13.360;2023-05-07T10:14:15;3.47;;;2.73;;
3755;SDS011;1893;52.526;13.360;2023-05-07T10:16:41;3.37;;;1.97;;
3755;SDS011;1893;52.526;13.360;2023-05-07T10:19:09;5.00;;;2.40;;
3755;SDS011;1893;52.526;13.360;2023-05-07T10:21:36;2.30;;;2.20;;
3755;SDS011;1893;52.526;13.360;2023-05-07T10:24:19;2.10;;;1.90;;
3755;SDS011;1893;52.526;13.360;2023-05-07T10:26:54;2.60;;;2.20;;
3755;SDS011;1893;52.526;13.360;2023-05-07T10:34:58;2.60;;;1.57;;
3755;SDS011;1893;52.526;13.360;2023-05-07T10:37:28;3.07;;;2.00;;
3755;SDS011;1893;52.526;13.360;2023-05-07T10:39:54;2.33;;;1.97;;
3755;SDS011;1893;52.526;13.360;2023-05-07T10:42:20;1.90;;;1.80;;
3755;SDS011;1893;52.526;13.360;2023-05-07T10:44:46;2.30;;;2.10;;
3755;SDS011;1893;52.526;13.360;2023-05-07T10:47:15;2.67;;;1.77;;
3755;SDS011;1893;52.526;13.360;2023-05-07T10:54:45;1.87;;;1.77;;
3755;SDS011;1893;52.526;13.360;2023-05-07T11:05:25;2.27;;;2.07;;
3755;SDS011;1893;52.526;13.360;2023-05-07T11:07:58;2.30;;;1.70;;
3755;SDS011;1893;52.526;13.360;2023-05-07T11:13:18;3.17;;;2.03;;
3755;SDS011;1893;52.526;13.360;2023-05-07T11:16:04;3.40;;;1.97;;
3755;SDS011;1893;52.526;13.360;2023-05-07T11:18:45;5.73;;;1.90;;
3755;SDS011;1893;52.526;13.360;2023-05-07T11:24:01;3.10;;;2.03;;
3755;SDS011;1893;52.526;13.360;2023-05-07T11:26:28;1.97;;;1.77;;
3755;SDS011;1893;52.526;13.360;2023-05-07T11:29:10;2.33;;;1.67;;
3755;SDS011;1893;52.526;13.360;2023-05-07T11:31:39;3.30;;;2.87;;
3755;SDS011;1893;52.526;13.360;2023-05-07T11:34:05;5.97;;;2.60;;
3755;SDS011;1893;52.526;13.360;2023-05-07T11:36:32;1.90;;;1.80;;
3755;SDS011;1893;52.526;13.360;2023-05-07T11:38:58;3.10;;;1.60;;
3755;SDS011;1893;52.526;13.360;2023-05-07T11:41:32;5.10;;;2.67;;
3755;SDS011;1893;52.526;13.360;2023-05-07T11:44:00;3.57;;;2.00;;
3755;SDS011;1893;52.526;13.360;2023-05-07T11:46:26;5.20;;;3.63;;
3755;SDS011;1893;52.526;13.360;2023-05-07T11:48:52;2.90;;;2.37;;
3755;SDS011;1893;52.526;13.360;2023-05-07T11:51:19;4.00;;;2.23;;
3755;SDS011;1893;52.526;13.360;2023-05-07T11:53:46;6.67;;;2.80;;
3755;SDS011;1893;52.526;13.360;2023-05-07T11:56:13;3.10;;;2.50;;
3755;SDS011;1893;52.526;13.360;2023-05-07T11:58:40;2.93;;;2.10;;
3755;SDS011;1893;52.526;13.360;2023-05-07T12:01:07;6.40;;;3.70;;
3755;SDS011;1893;52.526;13.360;2023-05-07T12:03:34;3.00;;;2.17;;
3755;SDS011;1893;52.526;13.360;2023-05-07T12:06:02;2.70;;;2.23;;
3755;SDS011;1893;52.526;13.360;2023-05-07T12:08:30;12.53;;;6.93;;
3755;SDS011;1893;52.526;13.360;2023-05-07T12:10:55;4.90;;;2.63;;
3755;SDS011;1893;52.526;13.360;2023-05-07T12:13:22;5.43;;;2.60;;
3755;SDS011;1893;52.526;13.360;2023-05-07T12:15:52;2.63;;;2.43;;
3755;SDS011;1893;52.526;13.360;2023-05-07T12:18:20;4.23;;;1.90;;
3755;SDS011;1893;52.526;13.360;2023-05-07T12:20:47;2.53;;;2.33;;
3755;SDS011;1893;52.526;13.360;2023-05-07T12:23:13;3.80;;;2.03;;
3755;SDS011;1893;52.526;13.360;2023-05-07T12:25:40;1.93;;;1.83;;
3755;SDS011;1893;52.526;13.360;2023-05-07T12:28:16;3.27;;;2.90;;
3755;SDS011;1893;52.526;13.360;2023-05-07T12:30:44;2.57;;;2.07;;
3755;SDS011;1893;52.526;13.360;2023-05-07T12:33:11;3.20;;;2.07;;
3755;SDS011;1893;52.526;13.360;2023-05-07T12:35:39;3.07;;;2.73;;
3755;SDS011;1893;52.526;13.360;2023-05-07T12:38:09;2.20;;;2.03;;
3755;SDS011;1893;52.526;13.360;2023-05-07T12:40:37;2.17;;;1.40;;
3755;SDS011;1893;52.526;13.360;2023-05-07T12:43:04;3.30;;;2.20;;
3755;SDS011;1893;52.526;13.360;2023-05-07T12:45:30;5.43;;;1.87;;
3755;SDS011;1893;52.526;13.360;2023-05-07T12:47:55;1.83;;;1.50;;
3755;SDS011;1893;52.526;13.360;2023-05-07T12:50:25;1.87;;;1.60;;
3755;SDS011;1893;52.526;13.360;2023-05-07T12:52:55;1.70;;;1.47;;
3755;SDS011;1893;52.526;13.360;2023-05-07T12:55:21;4.20;;;2.27;;
3755;SDS011;1893;52.526;13.360;2023-05-07T12:57:49;1.50;;;1.37;;
3755;SDS011;1893;52.526;13.360;2023-05-07T13:00:16;2.27;;;1.67;;
3755;SDS011;1893;52.526;13.360;2023-05-07T13:02:43;3.50;;;1.83;;
3755;SDS011;1893;52.526;13.360;2023-05-07T13:05:12;2.00;;;1.80;;
3755;SDS011;1893;52.526;13.360;2023-05-07T13:07:37;1.57;;;1.40;;
3755;SDS011;1893;52.526;13.360;2023-05-07T13:10:03;2.37;;;1.80;;
3755;SDS011;1893;52.526;13.360;2023-05-07T13:12:29;2.03;;;1.43;;
3755;SDS011;1893;52.526;13.360;2023-05-07T13:14:55;2.93;;;2.40;;
3755;SDS011;1893;52.526;13.360;2023-05-07T13:17:21;2.57;;;2.23;;
3755;SDS011;1893;52.526;13.360;2023-05-07T13:19:46;2.77;;;1.50;;
3755;SDS011;1893;52.526;13.360;2023-05-07T13:22:12;1.87;;;1.50;;
3755;SDS011;1893;52.526;13.360;2023-05-07T13:24:37;1.60;;;1.47;;
3755;SDS011;1893;52.526;13.360;2023-05-07T13:27:06;3.73;;;2.93;;
3755;SDS011;1893;52.526;13.360;2023-05-07T13:29:32;2.57;;;1.77;;
3755;SDS011;1893;52.526;13.360;2023-05-07T13:31:57;2.53;;;2.00;;
3755;SDS011;1893;52.526;13.360;2023-05-07T13:34:23;4.13;;;2.90;;
3755;SDS011;1893;52.526;13.360;2023-05-07T13:36:49;2.47;;;1.50;;
3755;SDS011;1893;52.526;13.360;2023-05-07T13:39:15;2.43;;;2.10;;
3755;SDS011;1893;52.526;13.360;2023-05-07T13:41:40;1.90;;;1.80;;
3755;SDS011;1893;52.526;13.360;2023-05-07T13:44:06;1.67;;;1.37;;
3755;SDS011;1893;52.526;13.360;2023-05-07T13:46:32;2.20;;;1.70;;
3755;SDS011;1893;52.526;13.360;2023-05-07T13:48:58;1.83;;;1.73;;
3755;SDS011;1893;52.526;13.360;2023-05-07T13:51:23;3.40;;;2.00;;
3755;SDS011;1893;52.526;13.360;2023-05-07T13:53:49;1.63;;;1.30;;
3755;SDS011;1893;52.526;13.360;2023-05-07T13:56:15;4.43;;;1.70;;
3755;SDS011;1893;52.526;13.360;2023-05-07T13:58:41;3.20;;;1.60;;
3755;SDS011;1893;52.526;13.360;2023-05-07T14:01:06;2.73;;;1.80;;
3755;SDS011;1893;52.526;13.360;2023-05-07T14:03:32;5.40;;;1.70;;
3755;SDS011;1893;52.526;13.360;2023-05-07T14:05:58;2.40;;;1.53;;
3755;SDS011;1893;52.526;13.360;2023-05-07T14:08:26;2.90;;;1.67;;
3755;SDS011;1893;52.526;13.360;2023-05-07T14:10:52;2.90;;;1.90;;
3755;SDS011;1893;52.526;13.360;2023-05-07T14:13:18;2.07;;;1.40;;
3755;SDS011;1893;52.526;13.360;2023-05-07T14:15:43;3.00;;;1.53;;
3755;SDS011;1893;52.526;13.360;2023-05-07T14:18:13;2.60;;;2.00;;
3755;SDS011;1893;52.526;13.360;2023-05-07T14:20:40;2.47;;;1.93;;
3755;SDS011;1893;52.526;13.360;2023-05-07T14:23:05;2.20;;;1.83;;
3755;SDS011;1893;52.526;13.360;2023-05-07T14:25:31;2.10;;;1.63;;
3755;SDS011;1893;52.526;13.360;2023-05-07T14:27:57;2.33;;;1.70;;
3755;SDS011;1893;52.526;13.360;2023-05-07T14:30:22;2.10;;;1.90;;
3755;SDS011;1893;52.526;13.360;2023-05-07T14:32:49;2.10;;;1.60;;
3755;SDS011;1893;52.526;13.360;2023-05-07T14:35:15;2.60;;;1.80;;
3755;SDS011;1893;52.526;13.360;2023-05-07T14:37:41;2.43;;;2.23;;
3755;SDS011;1893;52.526;13.360;2023-05-07T14:40:07;1.80;;;1.70;;
3755;SDS011;1893;52.526;13.360;2023-05-07T14:42:34;2.50;;;1.80;;
3755;SDS011;1893;52.526;13.360;2023-05-07T14:44:59;4.87;;;1.60;;
3755;SDS011;1893;52.526;13.360;2023-05-07T14:47:25;3.20;;;1.83;;
3755;SDS011;1893;52.526;13.360;2023-05-07T14:49:50;2.10;;;1.60;;
3755;SDS011;1893;52.526;13.360;2023-05-07T14:52:16;1.43;;;1.30;;
3755;SDS011;1893;52.526;13.360;2023-05-07T14:54:42;2.00;;;1.43;;
3755;SDS011;1893;52.526;13.360;2023-05-07T14:57:08;3.77;;;1.67;;
3755;SDS011;1893;52.526;13.360;2023-05-07T14:59:35;2.17;;;1.57;;
3755;SDS011;1893;52.526;13.360;2023-05-07T15:02:01;2.30;;;1.30;;
3755;SDS011;1893;52.526;13.360;2023-05-07T15:04:26;2.53;;;1.20;;
3755;SDS011;1893;52.526;13.360;2023-05-07T15:06:52;3.30;;;1.50;;
3755;SDS011;1893;52.526;13.360;2023-05-07T15:09:21;1.90;;;1.27;;
3755;SDS011;1893;52.526;13.360;2023-05-07T15:11:46;2.43;;;1.73;;